PWSweather.com
Personal Weather Stations
Station Observations
KMIEASTT1
Tawas Bay, East Tawas, MI 48730

Tawas BayEast Tawas, MI 48730

Lat: 44.28, Lon: -83.48

Elevation: 600

Station Type: Davis VantagePro

http://www.tawasbayweather.com

Latest ConditionsUpdated 8:00:14 PM EDT Sunday, Aug 28, 2016
Currently Today's Max Today's Min Today's Average
Temperature 72.9°F22.7°C 80.4°F26.9°C 69.9°F21.1°C 73.0°F22.8°C
Dew Point 69.5°F20.8°C 70.7°F21.5°C 66.4°F19.1°C 69.3°F20.7°C
Winds Calm Calm 9.0 mph E14.5 kmh E - 3.9 mph 6.3 kmh
Wind Gusts 3.0 mph4.8 kmh 14.0 mph22.5 kmh - -
Humidity 89% 98% 63% 89%
Pressure 30.14 in1020.7 mb 30.16 in1021.3 mb 30.05 in1017.6 mb -
Hour Temp Dew Point Humidity Winds Wind Gusts Pressure Precip Precip Rate Daily Precip Total
08:00 PM 72.9°F22.7°C 69.5°F20.8°C 89% Calm Calm 3.0 mph4.8 kmh 30.14 in1020.7 mb 0.00 in0.0 mm 0.00 in0.0 mm 0.05 in1.3 mm
07:45 PM 72.9°F22.7°C 69.1°F20.6°C 88% Calm Calm 3.0 mph4.8 kmh 30.14 in1020.7 mb 0.00 in0.0 mm 0.00 in0.0 mm 0.05 in1.3 mm
07:30 PM 73.1°F22.8°C 69.7°F20.9°C 89% Calm Calm 1.0 mph1.6 kmh 30.13 in1020.3 mb 0.00 in0.0 mm 0.00 in0.0 mm 0.05 in1.3 mm
07:15 PM 73.2°F22.9°C 69.8°F21.0°C 89% 2.0 mph S3.2 kmh S 5.0 mph8.0 kmh 30.14 in1020.7 mb 0.00 in0.0 mm 0.00 in0.0 mm 0.05 in1.3 mm
07:00 PM 73.5°F23.1°C 70.1°F21.2°C 89% 4.0 mph SSE6.4 kmh SSE 5.0 mph8.0 kmh 30.13 in1020.3 mb 0.00 in0.0 mm 0.00 in0.0 mm 0.05 in1.3 mm
06:45 PM 73.7°F23.2°C 70.3°F21.3°C 89% 3.0 mph S4.8 kmh S 4.0 mph6.4 kmh 30.14 in1020.7 mb 0.00 in0.0 mm 0.00 in0.0 mm 0.05 in1.3 mm
06:30 PM 73.7°F23.2°C 69.9°F21.1°C 88% 5.0 mph S8.0 kmh S 5.0 mph8.0 kmh 30.14 in1020.7 mb 0.00 in0.0 mm 0.00 in0.0 mm 0.05 in1.3 mm
06:15 PM 73.9°F23.3°C 70.1°F21.2°C 88% 2.0 mph SSE3.2 kmh SSE 4.0 mph6.4 kmh 30.14 in1020.7 mb 0.00 in0.0 mm 0.00 in0.0 mm 0.05 in1.3 mm
06:00 PM 74.4°F23.6°C 69.9°F21.1°C 86% 2.0 mph S3.2 kmh S 3.0 mph4.8 kmh 30.15 in1021.0 mb 0.00 in0.0 mm 0.00 in0.0 mm 0.05 in1.3 mm
05:45 PM 74.2°F23.4°C 70.1°F21.2°C 87% Calm Calm 7.0 mph11.3 kmh 30.15 in1021.0 mb 0.00 in0.0 mm 0.00 in0.0 mm 0.05 in1.3 mm
05:30 PM 74.7°F23.7°C 70.6°F21.4°C 87% 9.0 mph ESE14.5 kmh ESE 11.0 mph17.7 kmh 30.15 in1021.0 mb 0.00 in0.0 mm 0.00 in0.0 mm 0.05 in1.3 mm
05:15 PM 74.7°F23.7°C 69.9°F21.1°C 85% 9.0 mph E14.5 kmh E 10.0 mph16.1 kmh 30.14 in1020.7 mb 0.00 in0.0 mm 0.00 in0.0 mm 0.05 in1.3 mm
05:00 PM 75.3°F24.1°C 69.8°F21.0°C 83% 8.0 mph ESE12.9 kmh ESE 10.0 mph16.1 kmh 30.15 in1021.0 mb 0.00 in0.0 mm 0.00 in0.0 mm 0.05 in1.3 mm
04:45 PM 75.3°F24.1°C 69.4°F20.8°C 82% 8.0 mph E12.9 kmh E 11.0 mph17.7 kmh 30.14 in1020.7 mb 0.00 in0.0 mm 0.00 in0.0 mm 0.05 in1.3 mm
04:30 PM 76.0°F24.4°C 68.7°F20.4°C 78% 9.0 mph E14.5 kmh E 11.0 mph17.7 kmh 30.14 in1020.7 mb 0.00 in0.0 mm 0.00 in0.0 mm 0.05 in1.3 mm
04:15 PM 79.7°F26.5°C 66.5°F19.2°C 64% 1.0 mph SW1.6 kmh SW 7.0 mph11.3 kmh 30.14 in1020.7 mb 0.00 in0.0 mm 0.00 in0.0 mm 0.05 in1.3 mm
04:00 PM 79.6°F26.4°C 66.4°F19.1°C 64% 4.0 mph W6.4 kmh W 9.0 mph14.5 kmh 30.13 in1020.3 mb 0.00 in0.0 mm 0.00 in0.0 mm 0.05 in1.3 mm
03:45 PM 79.2°F26.2°C 67.7°F19.8°C 68% 4.0 mph WSW6.4 kmh WSW 7.0 mph11.3 kmh 30.13 in1020.3 mb 0.00 in0.0 mm 0.00 in0.0 mm 0.05 in1.3 mm
03:30 PM 80.4°F26.9°C 66.7°F19.3°C 63% 3.0 mph W4.8 kmh W 9.0 mph14.5 kmh 30.14 in1020.7 mb 0.00 in0.0 mm 0.00 in0.0 mm 0.05 in1.3 mm
03:15 PM 80.2°F26.8°C 67.4°F19.7°C 65% 4.0 mph W6.4 kmh W 8.0 mph12.9 kmh 30.14 in1020.7 mb 0.00 in0.0 mm 0.00 in0.0 mm 0.05 in1.3 mm
03:00 PM 79.3°F26.3°C 68.3°F20.2°C 69% 2.0 mph WNW3.2 kmh WNW 7.0 mph11.3 kmh 30.14 in1020.7 mb 0.00 in0.0 mm 0.00 in0.0 mm 0.05 in1.3 mm
02:45 PM 77.5°F25.3°C 67.0°F19.4°C 70% Calm Calm 9.0 mph14.5 kmh 30.15 in1021.0 mb 0.00 in0.0 mm 0.00 in0.0 mm 0.05 in1.3 mm
02:31 PM 77.6°F25.3°C 67.1°F19.5°C 70% 5.0 mph WNW8.0 kmh WNW 11.0 mph17.7 kmh 30.15 in1021.0 mb 0.00 in0.0 mm 0.00 in0.0 mm 0.05 in1.3 mm
02:15 PM 78.3°F25.7°C 66.5°F19.2°C 67% 4.0 mph WNW6.4 kmh WNW 7.0 mph11.3 kmh 30.16 in1021.3 mb 0.00 in0.0 mm 0.00 in0.0 mm 0.05 in1.3 mm
02:00 PM 77.5°F25.3°C 68.6°F20.3°C 74% 4.0 mph NW6.4 kmh NW 11.0 mph17.7 kmh 30.15 in1021.0 mb 0.00 in0.0 mm 0.00 in0.0 mm 0.05 in1.3 mm
01:45 PM 77.0°F25.0°C 67.7°F19.8°C 73% 5.0 mph WSW8.0 kmh WSW 9.0 mph14.5 kmh 30.16 in1021.3 mb 0.00 in0.0 mm 0.00 in0.0 mm 0.05 in1.3 mm
01:30 PM 76.6°F24.8°C 68.5°F20.3°C 76% 5.0 mph WSW8.0 kmh WSW 10.0 mph16.1 kmh 30.16 in1021.3 mb 0.00 in0.0 mm 0.00 in0.0 mm 0.05 in1.3 mm
01:15 PM 76.1°F24.5°C 67.6°F19.8°C 75% 7.0 mph WSW11.3 kmh WSW 11.0 mph17.7 kmh 30.16 in1021.3 mb 0.00 in0.0 mm 0.00 in0.0 mm 0.05 in1.3 mm
01:00 PM 76.2°F24.6°C 68.5°F20.3°C 77% 6.0 mph NNW9.7 kmh NNW 9.0 mph14.5 kmh 30.16 in1021.3 mb 0.00 in0.0 mm 0.00 in0.0 mm 0.05 in1.3 mm
12:45 PM 75.7°F24.3°C 68.0°F20.0°C 77% 7.0 mph W11.3 kmh W 11.0 mph17.7 kmh 30.16 in1021.3 mb 0.00 in0.0 mm 0.00 in0.0 mm 0.05 in1.3 mm
12:30 PM 75.1°F23.9°C 67.4°F19.7°C 77% 3.0 mph W4.8 kmh W 9.0 mph14.5 kmh 30.16 in1021.3 mb 0.00 in0.0 mm 0.00 in0.0 mm 0.05 in1.3 mm
12:15 PM 74.6°F23.7°C 68.4°F20.2°C 81% 6.0 mph W9.7 kmh W 9.0 mph14.5 kmh 30.15 in1021.0 mb 0.00 in0.0 mm 0.00 in0.0 mm 0.05 in1.3 mm
12:00 PM 73.9°F23.3°C 68.8°F20.4°C 84% Calm Calm 5.0 mph8.0 kmh 30.15 in1021.0 mb 0.00 in0.0 mm 0.00 in0.0 mm 0.05 in1.3 mm
11:45 AM 73.8°F23.2°C 69.0°F20.6°C 85% 3.0 mph W4.8 kmh W 6.0 mph9.7 kmh 30.15 in1021.0 mb 0.00 in0.0 mm 0.00 in0.0 mm 0.05 in1.3 mm
11:30 AM 72.9°F22.7°C 69.5°F20.8°C 89% 5.0 mph WSW8.0 kmh WSW 7.0 mph11.3 kmh 30.15 in1021.0 mb 0.00 in0.0 mm 0.00 in0.0 mm 0.05 in1.3 mm
11:15 AM 72.7°F22.6°C 69.6°F20.9°C 90% 4.0 mph WSW6.4 kmh WSW 14.0 mph22.5 kmh 30.15 in1021.0 mb 0.00 in0.0 mm 0.00 in0.0 mm 0.05 in1.3 mm
11:00 AM 72.0°F22.2°C 69.6°F20.9°C 92% 4.0 mph WSW6.4 kmh WSW 5.0 mph8.0 kmh 30.15 in1021.0 mb 0.00 in0.0 mm 0.00 in0.0 mm 0.05 in1.3 mm
10:45 AM 71.6°F22.0°C 69.5°F20.8°C 93% 5.0 mph WSW8.0 kmh WSW 7.0 mph11.3 kmh 30.14 in1020.7 mb 0.00 in0.0 mm 0.00 in0.0 mm 0.05 in1.3 mm
10:30 AM 71.5°F21.9°C 69.4°F20.8°C 93% 5.0 mph WSW8.0 kmh WSW 7.0 mph11.3 kmh 30.14 in1020.7 mb 0.00 in0.0 mm 0.00 in0.0 mm 0.05 in1.3 mm
10:15 AM 71.2°F21.8°C 69.4°F20.8°C 94% 6.0 mph WSW9.7 kmh WSW 7.0 mph11.3 kmh 30.13 in1020.3 mb 0.00 in0.0 mm 0.00 in0.0 mm 0.05 in1.3 mm
10:00 AM 71.2°F21.8°C 69.7°F20.9°C 95% 4.0 mph WSW6.4 kmh WSW 6.0 mph9.7 kmh 30.13 in1020.3 mb 0.00 in0.0 mm 0.00 in0.0 mm 0.05 in1.3 mm
09:45 AM 71.3°F21.8°C 69.8°F21.0°C 95% 3.0 mph SW4.8 kmh SW 4.0 mph6.4 kmh 30.12 in1020.0 mb 0.00 in0.0 mm 0.00 in0.0 mm 0.05 in1.3 mm
09:30 AM 70.9°F21.6°C 69.7°F20.9°C 96% 3.0 mph WSW4.8 kmh WSW 4.0 mph6.4 kmh 30.12 in1020.0 mb 0.00 in0.0 mm 0.00 in0.0 mm 0.05 in1.3 mm
09:15 AM 70.4°F21.3°C 69.5°F20.8°C 97% 3.0 mph WSW4.8 kmh WSW 5.0 mph8.0 kmh 30.12 in1020.0 mb 0.00 in0.0 mm 0.00 in0.0 mm 0.05 in1.3 mm
09:00 AM 70.1°F21.2°C 69.2°F20.7°C 97% 3.0 mph SW4.8 kmh SW 5.0 mph8.0 kmh 30.12 in1020.0 mb 0.00 in0.0 mm 0.00 in0.0 mm 0.05 in1.3 mm
08:45 AM 70.1°F21.2°C 69.2°F20.7°C 97% 3.0 mph SW4.8 kmh SW 4.0 mph6.4 kmh 30.12 in1020.0 mb 0.00 in0.0 mm 0.00 in0.0 mm 0.05 in1.3 mm
08:30 AM 69.9°F21.1°C 69.0°F20.6°C 97% 3.0 mph WSW4.8 kmh WSW 4.0 mph6.4 kmh 30.11 in1019.6 mb 0.00 in0.0 mm 0.00 in0.0 mm 0.05 in1.3 mm
08:15 AM 69.9°F21.1°C 69.0°F20.6°C 97% 2.0 mph WSW3.2 kmh WSW 4.0 mph6.4 kmh 30.11 in1019.6 mb 0.00 in0.0 mm 0.00 in0.0 mm 0.05 in1.3 mm
08:00 AM 69.9°F21.1°C 69.0°F20.6°C 97% 4.0 mph WSW6.4 kmh WSW 5.0 mph8.0 kmh 30.10 in1019.3 mb 0.01 in0.3 mm 0.00 in0.0 mm 0.05 in1.3 mm
07:45 AM 70.0°F21.1°C 69.1°F20.6°C 97% 3.0 mph WSW4.8 kmh WSW 4.0 mph6.4 kmh 30.10 in1019.3 mb 0.01 in0.3 mm 0.00 in0.0 mm 0.05 in1.3 mm
07:30 AM 70.1°F21.2°C 69.2°F20.7°C 97% 4.0 mph WSW6.4 kmh WSW 4.0 mph6.4 kmh 30.10 in1019.3 mb 0.01 in0.3 mm 0.00 in0.0 mm 0.05 in1.3 mm
07:15 AM 70.0°F21.1°C 69.1°F20.6°C 97% Calm Calm 2.0 mph3.2 kmh 30.09 in1019.0 mb 0.01 in0.3 mm 0.00 in0.0 mm 0.05 in1.3 mm
07:00 AM 70.1°F21.2°C 69.2°F20.7°C 97% Calm Calm 1.0 mph1.6 kmh 30.08 in1018.6 mb 0.01 in0.3 mm 0.01 in0.3 mm 0.05 in1.3 mm
06:45 AM 70.2°F21.2°C 69.3°F20.7°C 97% Calm Calm 4.0 mph6.4 kmh 30.08 in1018.6 mb 0.00 in0.0 mm 0.00 in0.0 mm 0.04 in1.0 mm
06:30 AM 70.3°F21.3°C 69.4°F20.8°C 97% 6.0 mph WSW9.7 kmh WSW 8.0 mph12.9 kmh 30.08 in1018.6 mb 0.00 in0.0 mm 0.00 in0.0 mm 0.04 in1.0 mm
06:15 AM 70.5°F21.4°C 69.6°F20.9°C 97% 4.0 mph WSW6.4 kmh WSW 5.0 mph8.0 kmh 30.08 in1018.6 mb 0.00 in0.0 mm 0.00 in0.0 mm 0.04 in1.0 mm
06:00 AM 70.5°F21.4°C 69.6°F20.9°C 97% 2.0 mph WSW3.2 kmh WSW 3.0 mph4.8 kmh 30.08 in1018.6 mb 0.00 in0.0 mm 0.00 in0.0 mm 0.04 in1.0 mm
05:45 AM 70.7°F21.5°C 69.8°F21.0°C 97% Calm Calm 6.0 mph9.7 kmh 30.07 in1018.3 mb 0.00 in0.0 mm 0.00 in0.0 mm 0.04 in1.0 mm
05:30 AM 71.0°F21.7°C 70.1°F21.2°C 97% 2.0 mph SW3.2 kmh SW 5.0 mph8.0 kmh 30.07 in1018.3 mb 0.00 in0.0 mm 0.00 in0.0 mm 0.04 in1.0 mm
05:15 AM 71.0°F21.7°C 70.1°F21.2°C 97% 5.0 mph SW8.0 kmh SW 7.0 mph11.3 kmh 30.07 in1018.3 mb 0.00 in0.0 mm 0.00 in0.0 mm 0.04 in1.0 mm
05:00 AM 71.0°F21.7°C 70.1°F21.2°C 97% 5.0 mph SW8.0 kmh SW 5.0 mph8.0 kmh 30.06 in1017.9 mb 0.04 in1.0 mm 0.00 in0.0 mm 0.04 in1.0 mm
04:45 AM 71.1°F21.7°C 70.2°F21.2°C 97% 4.0 mph SW6.4 kmh SW 7.0 mph11.3 kmh 30.06 in1017.9 mb 0.04 in1.0 mm 0.00 in0.0 mm 0.04 in1.0 mm
04:30 AM 71.3°F21.8°C 70.7°F21.5°C 98% 5.0 mph SSW8.0 kmh SSW 5.0 mph8.0 kmh 30.06 in1017.9 mb 0.04 in1.0 mm 0.00 in0.0 mm 0.04 in1.0 mm
04:15 AM 71.4°F21.9°C 70.5°F21.4°C 97% 1.0 mph SSW1.6 kmh SSW 3.0 mph4.8 kmh 30.05 in1017.6 mb 0.04 in1.0 mm 0.00 in0.0 mm 0.04 in1.0 mm
04:00 AM 71.4°F21.9°C 70.5°F21.4°C 97% 2.0 mph SSW3.2 kmh SSW 5.0 mph8.0 kmh 30.06 in1017.9 mb 0.04 in1.0 mm 0.04 in1.0 mm 0.04 in1.0 mm
03:45 AM 71.4°F21.9°C 70.5°F21.4°C 97% Calm Calm 5.0 mph8.0 kmh 30.05 in1017.6 mb 0.01 in0.3 mm 0.04 in1.0 mm 0.01 in0.3 mm
03:30 AM 71.3°F21.8°C 70.4°F21.3°C 97% 6.0 mph SSW9.7 kmh SSW 6.0 mph9.7 kmh 30.06 in1017.9 mb 0.00 in0.0 mm 0.00 in0.0 mm 0.00 in0.0 mm
03:15 AM 71.2°F21.8°C 70.3°F21.3°C 97% 3.0 mph SSW4.8 kmh SSW 7.0 mph11.3 kmh 30.06 in1017.9 mb 0.00 in0.0 mm 0.00 in0.0 mm 0.00 in0.0 mm
03:00 AM 71.2°F21.8°C 70.3°F21.3°C 97% 6.0 mph S9.7 kmh S 8.0 mph12.9 kmh 30.06 in1017.9 mb 0.00 in0.0 mm 0.00 in0.0 mm 0.00 in0.0 mm
02:45 AM 71.1°F21.7°C 70.2°F21.2°C 97% 5.0 mph SSW8.0 kmh SSW 7.0 mph11.3 kmh 30.06 in1017.9 mb 0.00 in0.0 mm 0.00 in0.0 mm 0.00 in0.0 mm
02:30 AM 71.1°F21.7°C 70.2°F21.2°C 97% 7.0 mph SSW11.3 kmh SSW 8.0 mph12.9 kmh 30.06 in1017.9 mb 0.00 in0.0 mm 0.00 in0.0 mm 0.00 in0.0 mm
02:15 AM 71.1°F21.7°C 70.2°F21.2°C 97% 7.0 mph SSW11.3 kmh SSW 8.0 mph12.9 kmh 30.06 in1017.9 mb 0.00 in0.0 mm 0.00 in0.0 mm 0.00 in0.0 mm
02:00 AM 71.1°F21.7°C 70.2°F21.2°C 97% 8.0 mph S12.9 kmh S 13.0 mph20.9 kmh 30.05 in1017.6 mb 0.00 in0.0 mm 0.00 in0.0 mm 0.00 in0.0 mm
01:45 AM 71.2°F21.8°C 70.3°F21.3°C 97% 8.0 mph S12.9 kmh S 10.0 mph16.1 kmh 30.05 in1017.6 mb 0.00 in0.0 mm 0.00 in0.0 mm 0.00 in0.0 mm
01:30 AM 71.3°F21.8°C 70.4°F21.3°C 97% 5.0 mph S8.0 kmh S 8.0 mph12.9 kmh 30.05 in1017.6 mb 0.00 in0.0 mm 0.00 in0.0 mm 0.00 in0.0 mm
01:15 AM 71.2°F21.8°C 70.3°F21.3°C 97% 5.0 mph S8.0 kmh S 7.0 mph11.3 kmh 30.06 in1017.9 mb 0.00 in0.0 mm 0.00 in0.0 mm 0.00 in0.0 mm
01:00 AM 71.3°F21.8°C 70.4°F21.3°C 97% 7.0 mph S11.3 kmh S 8.0 mph12.9 kmh 30.06 in1017.9 mb 0.00 in0.0 mm 0.00 in0.0 mm 0.00 in0.0 mm
12:45 AM 71.3°F21.8°C 70.4°F21.3°C 97% 4.0 mph S6.4 kmh S 7.0 mph11.3 kmh 30.06 in1017.9 mb 0.00 in0.0 mm 0.00 in0.0 mm 0.00 in0.0 mm
12:30 AM 71.2°F21.8°C 70.3°F21.3°C 97% 4.0 mph S6.4 kmh S 6.0 mph9.7 kmh 30.06 in1017.9 mb 0.00 in0.0 mm 0.00 in0.0 mm 0.00 in0.0 mm
12:15 AM 71.2°F21.8°C 70.3°F21.3°C 97% 5.0 mph SSW8.0 kmh SSW 6.0 mph9.7 kmh 30.06 in1017.9 mb 0.00 in0.0 mm 0.00 in0.0 mm 0.00 in0.0 mm
12:00 AM 71.3°F21.8°C 70.4°F21.3°C 97% 4.0 mph SSW6.4 kmh SSW 7.0 mph11.3 kmh 30.06 in1017.9 mb 0.00 in0.0 mm 0.00 in0.0 mm 0.00 in0.0 mm